Harrisonburg, Louisiana
Current Conditions -  °F | °C
As of 8:35 PM on Saturday 20 Dec 2014 (Local Time) from KHEZ Reporting Station
Clear Clear  
Wind Chill:   Ceiling: Unl
Heat Index:   Visibility: 10mi
Dew Point:   Wind: 3mph
Humidity: 87%   Direction: 50°NE
Pressure: 30.17"   Gusts: NA
Location:  31.77°N, 91.82°W
Report Text: KHEZ 210235Z AUTO 05003KT 10SM CLR 07/05 A3017 RMK AO1
Loading
Personal Weather Stations






























Interactive Weather Map New forecast layout! Learn more

10-Day Weather Forecast

Advertisements
Track Severe Weather on mobile